Time;durP1;ratioP1;P1;durP2;ratioP2;P2;SDS_P1;SDS_P2;PMS_P1;PMS_P2;Temp;Humidity;BMP_temperature;BMP_pressure;BME280_temperature;BME280_humidity;BME280_pressure;Samples;Min_cycle;Max_cycle;Signal;HPM_P1;HPM_P2
2021/12/10 00:01:59;;;;;;;74.60;29.10;;;;;;;-1.34;86.71;97162.54;103347;1326;22858;-82
2021/12/10 00:04:31;;;;;;;75.50;29.70;;;;;;;-1.30;86.87;97155.71;103246;1316;24410;-82
2021/12/10 00:07:06;;;;;;;83.20;29.90;;;;;;;-1.27;86.87;97143.54;103338;1316;137416;-85
2021/12/10 00:09:38;;;;;;;81.80;30.30;;;;;;;-1.25;86.86;97140.34;103398;1319;24145;-84
2021/12/10 00:12:20;;;;;;;86.50;30.40;;;;;;;-1.24;86.85;97138.29;103349;1319;137660;-83
2021/12/10 00:14:48;;;;;;;75.60;29.30;;;;;;;-1.25;86.55;97137.58;103229;1319;25355;-84
2021/12/10 00:17:17;;;;;;;85.00;30.80;;;;;;;-1.28;86.50;97135.02;103101;1316;137727;-85
2021/12/10 00:19:49;;;;;;;79.90;30.90;;;;;;;-1.32;86.37;97130.88;103126;1320;22595;-83
2021/12/10 00:22:24;;;;;;;82.90;31.10;;;;;;;-1.30;86.78;97126.48;103162;1322;22602;-83
2021/12/10 00:25:12;;;;;;;79.30;29.30;;;;;;;-1.26;86.93;97131.67;103153;1316;137299;-83
2021/12/10 00:27:40;;;;;;;84.80;30.80;;;;;;;-1.24;86.75;97129.73;103289;1319;25476;-83
2021/12/10 00:30:28;;;;;;;86.60;31.80;;;;;;;-1.26;86.56;97125.23;103267;1320;138157;-83
2021/12/10 00:33:10;;;;;;;90.20;31.50;;;;;;;-1.29;86.69;97126.77;103231;1320;23353;-83
2021/12/10 00:35:54;;;;;;;83.60;32.00;;;;;;;-1.29;86.92;97120.85;102955;1319;138337;-82
2021/12/10 00:38:22;;;;;;;83.60;30.10;;;;;;;-1.27;86.74;97120.83;102993;1321;24227;-82
2021/12/10 00:40:51;;;;;;;83.60;32.10;;;;;;;-1.28;86.59;97114.91;102946;1325;138054;-82
2021/12/10 00:43:18;;;;;;;80.20;30.20;;;;;;;-1.29;86.44;97112.73;103064;1316;25476;-82
2021/12/10 00:45:46;;;;;;;86.40;31.80;;;;;;;-1.29;86.79;97115.85;103048;1320;25338;-82
2021/12/10 00:48:13;;;;;;;81.80;31.90;;;;;;;-1.25;86.97;97116.92;103066;1322;138747;-83
2021/12/10 00:50:46;;;;;;;82.90;29.90;;;;;;;-1.20;87.41;97114.14;103350;1316;23596;-83
2021/12/10 00:53:15;;;;;;;75.90;30.40;;;;;;;-1.15;87.25;97109.17;103600;1321;138232;-82
2021/12/10 00:55:43;;;;;;;88.20;32.30;;;;;;;-1.10;86.92;97109.27;103398;1319;22706;-82
2021/12/10 00:58:12;;;;;;;92.30;33.00;;;;;;;-1.06;87.14;97107.66;103282;1318;22714;-83
2021/12/10 01:00:44;;;;;;;83.50;31.30;;;;;;;-1.01;87.08;97097.55;103140;1322;137779;-83
2021/12/10 01:03:13;;;;;;;82.90;31.70;;;;;;;-0.98;87.00;97086.37;103477;1316;24222;-83
2021/12/10 01:05:45;;;;;;;89.60;32.10;;;;;;;-0.95;86.55;97081.64;103227;1323;137433;-83
2021/12/10 01:08:12;;;;;;;85.90;32.30;;;;;;;-0.98;86.37;97069.69;103441;1320;24245;-83
2021/12/10 01:10:48;;;;;;;85.20;31.80;;;;;;;-0.99;86.07;97074.48;103311;1322;25236;-83
2021/12/10 01:13:19;;;;;;;88.30;33.90;;;;;;;-1.01;86.25;97079.75;103660;1316;137802;-83
2021/12/10 01:27:03;;;;;;;84.40;30.80;;;;;;;-0.87;86.58;97107.09;103494;1320;23939;-83
2021/12/10 01:29:36;;;;;;;83.00;31.80;;;;;;;-0.83;86.38;97103.20;103425;1319;139013;-82
2021/12/10 01:32:08;;;;;;;92.00;33.00;;;;;;;-0.81;86.37;97104.74;103474;1321;24237;-83
2021/12/10 01:34:36;;;;;;;84.80;32.00;;;;;;;-0.80;86.11;97104.58;103650;1325;24272;-83
2021/12/10 01:37:05;;;;;;;93.10;33.70;;;;;;;-0.80;85.89;97111.70;103219;1319;137527;-83
2021/12/10 01:39:36;;;;;;;81.10;31.50;;;;;;;-0.84;85.71;97115.77;103480;1320;22587;-83
2021/12/10 01:42:15;;;;;;;89.30;33.00;;;;;;;-0.88;85.72;97122.17;103220;1325;137655;-83
2021/12/10 01:44:50;;;;;;;84.20;30.10;;;;;;;-0.89;86.15;97119.63;103326;1322;25356;-83
2021/12/10 01:47:23;;;;;;;84.20;29.80;;;;;;;-0.85;86.18;97112.55;103244;1321;138153;-82
2021/12/10 01:49:51;;;;;;;91.70;34.30;;;;;;;-0.80;86.45;97117.65;103542;1316;25334;-82
2021/12/10 01:52:19;;;;;;;87.10;34.40;;;;;;;-0.74;86.11;97123.70;103356;1316;22600;-82
2021/12/10 01:54:51;;;;;;;87.30;32.10;;;;;;;-0.73;86.09;97125.59;103541;1319;137731;-82
2021/12/10 01:57:22;;;;;;;97.00;33.50;;;;;;;-0.73;85.83;97117.31;103090;1322;25368;-83
2021/12/10 01:59:49;;;;;;;87.50;34.50;;;;;;;-0.73;85.80;97114.37;103143;1323;137724;-82
2021/12/10 02:02:35;;;;;;;89.90;32.70;;;;;;;-0.77;85.40;97110.86;103422;1319;22565;-83
2021/12/10 02:05:05;;;;;;;92.90;33.60;;;;;;;-0.76;85.60;97112.03;103297;1321;138489;-83
2021/12/10 02:07:33;;;;;;;85.90;33.00;;;;;;;-0.76;85.71;97117.00;103679;1319;23301;-83
2021/12/10 02:10:00;;;;;;;84.60;32.60;;;;;;;-0.73;85.74;97122.88;103420;1319;22706;-83
2021/12/10 02:12:28;;;;;;;95.20;33.20;;;;;;;-0.71;85.63;97124.04;103336;1323;137894;-83
2021/12/10 02:15:03;;;;;;;88.50;31.20;;;;;;;-0.73;85.34;97118.17;103251;1320;22589;-83
2021/12/10 02:17:37;;;;;;;85.70;31.40;;;;;;;-0.84;85.20;97114.33;103484;1316;138323;-83
2021/12/10 02:20:12;;;;;;;94.90;32.30;;;;;;;-0.92;85.41;97110.09;103508;1322;24250;-84
2021/12/10 02:22:54;;;;;;;87.30;32.50;;;;;;;-0.96;85.72;97108.61;103294;1322;138751;-83
2021/12/10 02:25:28;;;;;;;91.70;32.50;;;;;;;-0.95;85.77;97104.95;103389;1319;22584;-84
2021/12/10 02:27:56;;;;;;;85.10;31.00;;;;;;;-0.95;86.00;97094.23;103556;1324;22587;-84
2021/12/10 02:30:26;;;;;;;86.00;33.30;;;;;;;-0.99;85.98;97085.52;103353;1320;137590;-84
2021/12/10 02:33:07;;;;;;;84.20;30.40;;;;;;;-1.04;85.94;97079.59;103301;1323;22579;-84
2021/12/10 02:35:35;;;;;;;103.70;35.50;;;;;;;-1.12;85.94;97071.28;103317;1319;137927;-84
2021/12/10 02:38:04;;;;;;;86.60;32.40;;;;;;;-1.21;85.88;97060.55;103525;1316;22614;-84
2021/12/10 02:40:32;;;;;;;92.20;32.30;;;;;;;-1.26;85.96;97060.95;103439;1320;24390;-84
2021/12/10 02:43:04;;;;;;;86.60;30.20;;;;;;;-1.35;85.87;97056.77;103297;1320;137930;-84
2021/12/10 02:45:31;;;;;;;90.40;31.60;;;;;;;-1.43;86.49;97059.51;103714;1316;22603;-84
2021/12/10 02:47:59;;;;;;;89.10;33.70;;;;;;;-1.47;86.65;97062.33;103321;1322;137802;-84
2021/12/10 02:50:30;;;;;;;99.80;33.70;;;;;;;-1.48;87.23;97061.76;103298;1324;25325;-84
2021/12/10 02:52:58;;;;;;;88.90;32.40;;;;;;;-1.45;87.37;97058.15;103342;1318;139938;-84
2021/12/10 02:55:26;;;;;;;91.30;32.10;;;;;;;-1.39;87.67;97056.99;103397;1316;22750;-84
2021/12/10 02:57:58;;;;;;;99.60;34.10;;;;;;;-1.30;88.10;97065.80;103438;1321;22587;-84
2021/12/10 03:00:33;;;;;;;97.20;33.00;;;;;;;-1.25;87.56;97054.55;103411;1316;137628;-84
2021/12/10 03:03:00;;;;;;;90.90;33.20;;;;;;;-1.18;87.88;97055.29;103548;1316;22632;-84
2021/12/10 03:05:28;;;;;;;101.20;34.90;;;;;;;-1.15;87.54;97053.45;103467;1319;137877;-84
2021/12/10 03:07:55;;;;;;;96.80;33.50;;;;;;;-1.12;87.24;97045.81;103477;1318;22764;-84
2021/12/10 03:10:30;;;;;;;95.30;32.50;;;;;;;-1.12;86.88;97050.61;103579;1319;22626;-84
2021/12/10 03:13:12;;;;;;;89.40;32.70;;;;;;;-1.14;86.83;97053.73;103355;1323;137325;-84
2021/12/10 03:15:40;;;;;;;91.20;34.90;;;;;;;-1.13;86.98;97057.63;103478;1318;22596;-84
2021/12/10 03:18:10;;;;;;;86.60;31.00;;;;;;;-1.10;87.53;97051.97;103291;1316;137992;-84
2021/12/10 03:20:39;;;;;;;94.20;33.30;;;;;;;-1.07;87.60;97058.14;103629;1316;23343;-84
2021/12/10 03:23:06;;;;;;;93.10;33.30;;;;;;;-1.04;87.19;97060.35;103529;1316;138946;-84
2021/12/10 03:25:34;;;;;;;90.80;32.60;;;;;;;-1.01;87.17;97059.38;103410;1319;25373;-84
2021/12/10 03:28:01;;;;;;;86.50;33.30;;;;;;;-0.97;86.87;97069.55;103337;1319;22619;-84
2021/12/10 03:30:34;;;;;;;93.80;33.00;;;;;;;-0.94;87.09;97082.76;103281;1319;137952;-84
2021/12/10 03:33:02;;;;;;;90.20;34.30;;;;;;;-0.96;86.69;97076.70;103545;1322;24493;-84
2021/12/10 03:35:46;;;;;;;96.10;34.30;;;;;;;-0.98;86.89;97071.44;103280;1318;137612;-84
2021/12/10 03:38:22;;;;;;;103.20;35.40;;;;;;;-0.99;86.75;97067.71;103522;1319;22586;-84
2021/12/10 03:40:50;;;;;;;94.20;36.40;;;;;;;-0.98;87.00;97065.89;103825;1322;22579;-84
2021/12/10 03:43:20;;;;;;;89.90;31.50;;;;;;;-0.95;86.74;97061.84;103254;1320;137776;-84
2021/12/10 03:45:48;;;;;;;;;;;;;;;-0.93;86.71;97069.52;103708;1320;25342;-84
2021/12/10 03:48:20;;;;;;;90.40;35.10;;;;;;;-0.92;86.93;97066.92;103416;1323;123804;-84
2021/12/10 03:50:48;;;;;;;91.20;32.60;;;;;;;-0.90;87.00;97065.86;103505;1318;22729;-84
2021/12/10 03:53:16;;;;;;;95.90;34.80;;;;;;;-0.91;86.61;97070.38;103346;1319;138486;-84
2021/12/10 03:55:46;;;;;;;94.80;34.00;;;;;;;-0.89;87.02;97071.98;103708;1322;22738;-84
2021/12/10 03:58:15;;;;;;;92.20;33.60;;;;;;;-0.87;86.89;97064.42;103687;1316;22840;-84
2021/12/10 04:00:46;;;;;;;101.20;34.50;;;;;;;-0.86;86.89;97070.38;103604;1316;137522;-84
2021/12/10 04:03:15;;;;;;;94.30;34.40;;;;;;;-0.85;86.83;97074.98;103682;1316;22616;-84
2021/12/10 04:05:43;;;;;;;101.30;35.10;;;;;;;-0.86;86.84;97079.42;103538;1316;137598;-84
2021/12/10 04:08:10;;;;;;;94.40;35.00;;;;;;;-0.87;86.98;97078.92;103339;1323;22820;-84
2021/12/10 04:10:38;;;;;;;90.10;34.00;;;;;;;-0.87;86.80;97078.80;103433;1321;23859;-84
2021/12/10 04:13:06;;;;;;;92.70;34.20;;;;;;;-0.87;86.66;97086.15;103351;1319;137744;-84
2021/12/10 04:15:35;;;;;;;84.30;33.30;;;;;;;-0.86;86.59;97092.34;103512;1319;25242;-84
2021/12/10 04:18:04;;;;;;;;;;;;;;;-0.87;86.82;97094.95;103226;1323;137727;-84
2021/12/10 04:20:31;;;;;;;82.40;33.60;;;;;;;-0.87;86.69;97092.81;103573;1320;22570;-84
2021/12/10 04:23:04;;;;;;;98.70;34.80;;;;;;;-0.87;86.70;97092.20;103333;1322;137685;-84
2021/12/10 04:25:31;;;;;;;95.60;35.80;;;;;;;-0.87;86.74;97100.50;103283;1321;344131;-84
2021/12/10 04:28:03;;;;;;;98.50;34.20;;;;;;;-0.87;86.81;97094.96;103806;1319;22586;-85
2021/12/10 04:30:39;;;;;;;99.20;34.90;;;;;;;-0.86;86.82;97096.55;103217;1318;137935;-84
2021/12/10 04:33:25;;;;;;;98.50;35.80;;;;;;;-0.88;86.70;97092.21;103349;1321;22791;-85
2021/12/10 04:35:55;;;;;;;89.50;33.30;;;;;;;-0.88;86.78;97088.55;103414;1323;138121;-84
2021/12/10 04:38:23;;;;;;;104.20;35.10;;;;;;;-0.90;86.72;97087.93;103996;1316;22590;-84
2021/12/10 04:40:56;;;;;;;96.70;34.50;;;;;;;-0.91;86.65;97092.70;103479;1320;22729;-84
2021/12/10 04:43:23;;;;;;;88.80;34.80;;;;;;;-0.90;86.79;97097.17;103338;1316;138813;-84
2021/12/10 04:45:56;;;;;;;92.00;33.30;;;;;;;-0.89;86.82;97101.46;103472;1319;26548;-84
2021/12/10 04:48:26;;;;;;;99.70;34.90;;;;;;;-0.91;86.57;97095.83;103479;1319;137717;-85
2021/12/10 04:50:54;;;;;;;90.60;32.30;;;;;;;-0.91;86.83;97090.24;103374;1318;22687;-84
2021/12/10 04:53:23;;;;;;;90.80;34.70;;;;;;;-0.92;86.75;97093.32;103368;1318;137886;-84
2021/12/10 04:55:50;;;;;;;88.40;32.20;;;;;;;-0.93;86.84;97108.04;103455;1325;23087;-84
2021/12/10 04:58:17;;;;;;;87.20;33.50;;;;;;;-0.93;86.70;97110.09;103490;1323;23853;-84
2021/12/10 05:00:48;;;;;;;92.20;34.90;;;;;;;-0.93;86.79;97116.23;103234;1325;137509;-84
2021/12/10 05:03:15;;;;;;;90.30;32.90;;;;;;;-0.94;86.83;97113.99;103399;1323;24300;-84
2021/12/10 05:05:44;;;;;;;82.30;30.60;;;;;;;-0.97;86.75;97109.10;103389;1317;138143;-84
2021/12/10 05:08:13;;;;;;;96.90;33.40;;;;;;;-1.00;86.76;97113.95;103796;1316;24348;-84
2021/12/10 05:10:40;;;;;;;89.80;33.80;;;;;;;-1.02;86.76;97121.27;103498;1319;22776;-84
2021/12/10 05:13:07;;;;;;;91.80;34.10;;;;;;;-1.04;86.73;97120.81;103188;1325;139531;-84
2021/12/10 05:15:38;;;;;;;93.90;33.60;;;;;;;-1.07;86.75;97117.38;103411;1319;22665;-84
2021/12/10 05:18:08;;;;;;;94.60;32.50;;;;;;;-1.07;87.05;97119.05;103362;1322;137829;-84
2021/12/10 05:20:49;;;;;;;92.90;32.90;;;;;;;-1.09;86.69;97115.51;103598;1323;22758;-85
2021/12/10 05:23:18;;;;;;;96.80;33.80;;;;;;;-1.11;87.02;97107.79;103399;1316;137784;-84
2021/12/10 05:25:45;;;;;;;92.40;33.20;;;;;;;-1.11;86.95;97107.23;103473;1316;23073;-84
2021/12/10 05:28:13;;;;;;;96.00;34.60;;;;;;;-1.11;86.88;97103.02;103594;1316;22583;-84
2021/12/10 05:30:56;;;;;;;94.30;34.50;;;;;;;-1.11;86.96;97103.75;103460;1316;137737;-84
2021/12/10 05:33:25;;;;;;;91.20;33.40;;;;;;;-1.11;87.21;97101.52;103372;1319;24289;-85
2021/12/10 05:35:52;;;;;;;96.80;32.90;;;;;;;-1.11;86.92;97099.80;103206;1325;137667;-85
2021/12/10 05:38:21;;;;;;;90.50;35.00;;;;;;;-1.14;86.92;97091.29;103330;1321;22587;-85
2021/12/10 05:40:51;;;;;;;87.40;34.50;;;;;;;-1.19;87.05;97089.89;103436;1322;22580;-85
2021/12/10 05:43:19;;;;;;;86.80;33.90;;;;;;;-1.18;86.89;97083.27;103552;1316;138053;-85
2021/12/10 05:46:00;;;;;;;96.10;36.10;;;;;;;-1.19;87.08;97087.42;103362;1316;22590;-85
2021/12/10 05:48:40;;;;;;;88.90;34.80;;;;;;;-1.19;87.01;97086.52;103434;1316;138632;-84
2021/12/10 05:51:08;;;;;;;97.30;35.80;;;;;;;-1.19;87.15;97084.50;103232;1319;22573;-84
2021/12/10 05:53:50;;;;;;;94.10;34.40;;;;;;;-1.19;87.40;97089.48;103289;1319;137876;-84
2021/12/10 05:56:18;;;;;;;91.70;35.60;;;;;;;-1.17;87.21;97084.22;103587;1319;22590;-84
2021/12/10 05:58:45;;;;;;;99.60;34.40;;;;;;;-1.14;87.33;97085.95;103380;1323;22600;-85
2021/12/10 06:01:16;;;;;;;98.10;36.60;;;;;;;-1.11;87.07;97085.33;103423;1321;137492;-85
2021/12/10 06:03:51;;;;;;;94.40;33.80;;;;;;;-1.11;87.19;97083.48;103526;1316;22583;-85
2021/12/10 06:06:24;;;;;;;101.50;37.80;;;;;;;-1.09;87.28;97085.02;103614;1316;139389;-85
2021/12/10 06:08:52;;;;;;;98.80;35.40;;;;;;;-1.08;87.06;97088.88;103735;1319;22721;-84
2021/12/10 06:11:21;;;;;;;94.00;35.20;;;;;;;-1.09;87.07;97092.40;103271;1319;139211;-84
2021/12/10 06:14:03;;;;;;;95.80;34.70;;;;;;;-1.08;86.96;97095.86;103420;1319;22733;-85
2021/12/10 06:16:31;;;;;;;104.80;37.90;;;;;;;-1.06;86.91;97100.95;103486;1319;22582;-85
2021/12/10 06:18:58;;;;;;;91.70;37.40;;;;;;;-1.05;87.00;97109.42;103393;1319;137916;-85
2021/12/10 06:21:27;;;;;;;94.10;35.60;;;;;;;-1.06;86.95;97110.17;103341;1323;22598;-85
2021/12/10 06:23:56;;;;;;;113.70;39.20;;;;;;;-1.09;86.76;97107.49;103409;1319;137561;-84
2021/12/10 06:26:37;;;;;;;97.20;37.00;;;;;;;-1.09;86.93;97110.20;103371;1316;22684;-84
2021/12/10 06:29:05;;;;;;;98.10;37.20;;;;;;;-1.06;87.16;97119.16;103422;1319;22756;-84
2021/12/10 06:31:33;;;;;;;103.70;36.80;;;;;;;-1.02;87.25;97123.33;103843;1316;25242;-84
2021/12/10 06:34:01;;;;;;;99.80;37.20;;;;;;;-0.99;87.23;97124.32;103478;1316;24313;-84
2021/12/10 06:36:29;;;;;;;94.90;36.20;;;;;;;-0.97;87.15;97120.53;103207;1323;137982;-84
2021/12/10 06:38:57;;;;;;;103.00;38.30;;;;;;;-0.96;86.99;97126.21;103587;1319;24249;-84
2021/12/10 06:41:24;;;;;;;105.90;37.00;;;;;;;-0.94;87.00;97126.58;103425;1319;138508;-84
2021/12/10 06:43:51;;;;;;;101.70;36.50;;;;;;;-0.90;87.00;97126.73;103531;1319;22773;-84
2021/12/10 06:46:18;;;;;;;102.00;37.20;;;;;;;-0.89;86.76;97123.08;103526;1319;22600;-84
2021/12/10 06:48:59;;;;;;;103.70;38.50;;;;;;;-0.87;87.08;97126.08;103599;1318;138111;-84
2021/12/10 06:51:27;;;;;;;108.00;39.40;;;;;;;-0.84;87.07;97118.31;103954;1319;22565;-84
2021/12/10 06:53:54;;;;;;;100.50;37.50;;;;;;;-0.83;86.91;97115.97;103355;1316;137642;-84
2021/12/10 06:56:22;;;;;;;103.10;36.40;;;;;;;-0.81;86.79;97115.70;103637;1321;22639;-84
2021/12/10 06:58:51;;;;;;;97.20;36.40;;;;;;;-0.76;86.82;97116.55;103992;1316;22602;-84
2021/12/10 07:01:23;;;;;;;97.20;36.20;;;;;;;-0.72;86.93;97111.65;103588;1319;137580;-84
2021/12/10 07:03:54;;;;;;;104.80;37.40;;;;;;;-0.67;86.77;97110.50;103334;1318;22576;-84
2021/12/10 07:06:23;;;;;;;103.80;38.70;;;;;;;-0.63;86.71;97107.52;103588;1319;137898;-84
2021/12/10 07:08:51;;;;;;;109.40;38.80;;;;;;;-0.60;86.41;97110.57;103447;1319;22757;-84
2021/12/10 07:11:22;;;;;;;99.40;37.60;;;;;;;-0.57;86.64;97112.67;103250;1319;138652;-85
2021/12/10 07:13:54;;;;;;;101.10;35.70;;;;;;;-0.52;86.32;97114.92;103503;1320;23534;-85
2021/12/10 07:16:24;;;;;;;112.90;39.80;;;;;;;-0.46;86.30;97111.58;103801;1316;23275;-84
2021/12/10 07:18:54;;;;;;;107.80;38.90;;;;;;;-0.38;86.44;97110.79;103533;1319;138642;-85
2021/12/10 07:21:22;;;;;;;107.80;39.70;;;;;;;-0.31;86.29;97109.34;103851;1319;25502;-85
2021/12/10 07:23:50;;;;;;;107.10;40.30;;;;;;;-0.27;86.08;97113.61;104083;1318;137863;-84
2021/12/10 07:26:18;;;;;;;111.90;39.10;;;;;;;-0.23;85.41;97111.86;103464;1323;24244;-84
2021/12/10 07:28:46;;;;;;;99.40;37.50;;;;;;;-0.23;85.45;97114.25;103493;1319;22633;-84
2021/12/10 07:31:14;;;;;;;111.20;40.90;;;;;;;-0.16;85.43;97114.38;103532;1319;138373;-84
2021/12/10 07:33:42;;;;;;;98.50;37.50;;;;;;;-0.08;85.73;97121.22;103754;1316;25357;-84
2021/12/10 07:36:10;;;;;;;106.60;38.60;;;;;;;-0.03;85.03;97126.55;103512;1316;137792;-84
2021/12/10 07:38:38;;;;;;;110.70;40.30;;;;;;;-0.04;85.14;97129.85;103634;1316;22762;-84
2021/12/10 07:41:06;;;;;;;104.70;37.20;;;;;;;-0.03;85.02;97133.21;103704;1323;138081;-84
2021/12/10 07:43:39;;;;;;;107.50;39.60;;;;;;;-0.07;84.54;97134.23;103443;1322;22565;-84
2021/12/10 07:46:07;;;;;;;96.10;38.90;;;;;;;-0.11;84.33;97136.84;103467;1325;22619;-85
2021/12/10 07:48:36;;;;;;;103.30;38.50;;;;;;;-0.13;84.68;97144.28;103336;1319;137508;-84
2021/12/10 07:51:09;;;;;;;110.80;41.10;;;;;;;-0.15;84.47;97147.55;103312;1322;23082;-84
2021/12/10 07:53:38;;;;;;;104.80;40.40;;;;;;;-0.16;84.46;97150.59;103395;1318;138053;-84
2021/12/10 07:56:06;;;;;;;;;;;;;;;-0.21;84.26;97149.68;103463;1316;22570;-84
2021/12/10 07:58:34;;;;;;;102.80;37.20;;;;;;;-0.24;84.41;97150.80;103253;1323;24419;-84
2021/12/10 08:01:07;;;;;;;103.40;40.50;;;;;;;-0.26;84.39;97150.20;103752;1323;138209;-84
2021/12/10 08:03:48;;;;;;;110.10;41.10;;;;;;;-0.25;84.69;97148.50;103606;1320;22587;-85
2021/12/10 08:06:18;;;;;;;108.80;41.10;;;;;;;-0.23;84.85;97150.30;103312;1320;138306;-84
2021/12/10 08:08:45;;;;;;;103.40;39.20;;;;;;;-0.16;84.90;97145.90;103396;1319;24034;-84
2021/12/10 08:11:14;;;;;;;115.10;47.40;;;;;;;-0.17;84.27;97147.91;103209;1318;138576;-84
2021/12/10 08:13:41;;;;;;;127.20;47.70;;;;;;;-0.15;84.48;97142.93;103686;1316;22754;-85
2021/12/10 08:16:11;;;;;;;115.20;43.00;;;;;;;-0.11;84.59;97146.54;103355;1323;25431;-84
2021/12/10 08:18:39;;;;;;;111.90;40.60;;;;;;;-0.02;84.95;97147.71;103903;1319;138320;-85
2021/12/10 08:21:07;;;;;;;109.10;42.80;;;;;;;0.07;84.63;97142.51;103541;1316;22654;-84
2021/12/10 08:23:50;;;;;;;103.80;39.70;;;;;;;0.16;84.37;97144.65;103324;1319;137732;-85
2021/12/10 08:26:17;;;;;;;90.70;33.30;;;;;;;0.15;83.40;97141.98;103470;1318;22618;-84
2021/12/10 08:28:45;;;;;;;105.20;39.70;;;;;;;0.01;83.00;97142.44;103512;1319;22603;-85
2021/12/10 08:31:15;;;;;;;109.30;40.20;;;;;;;-0.09;83.28;97153.09;103006;1322;137772;-84
2021/12/10 08:33:47;;;;;;;112.70;43.60;;;;;;;-0.20;83.28;97160.42;103437;1316;22670;-84
2021/12/10 08:36:17;;;;;;;105.60;40.70;;;;;;;-0.22;83.67;97161.84;103159;1323;138275;-85
2021/12/10 08:38:46;;;;;;;118.80;44.90;;;;;;;-0.25;83.57;97166.33;103401;1316;25643;-84
2021/12/10 08:41:30;;;;;;;103.50;39.10;;;;;;;-0.27;83.97;97163.29;103209;1316;138719;-84
2021/12/10 08:43:59;;;;;;;108.40;42.30;;;;;;;-0.32;84.08;97167.33;103771;1321;25240;-84
2021/12/10 08:46:28;;;;;;;97.40;37.00;;;;;;;-0.36;83.91;97170.66;105303;1315;22965;-85
2021/12/10 08:48:58;;;;;;;116.90;43.90;;;;;;;-0.41;84.01;97169.39;103963;1323;137862;-85
2021/12/10 08:51:47;;;;;;;114.20;43.50;;;;;;;-0.40;84.32;97168.65;103106;1319;24256;-85
2021/12/10 08:54:31;;;;;;;107.20;40.60;;;;;;;-0.23;84.87;97170.48;102937;1324;138558;-84
2021/12/10 08:56:58;;;;;;;;;;;;;;;0.01;85.49;97169.45;103138;1319;22656;-85
2021/12/10 08:59:26;;;;;;;102.90;41.40;;;;;;;0.25;85.66;97166.16;103283;1325;123535;-85
2021/12/10 09:01:57;;;;;;;111.00;43.80;;;;;;;0.44;85.28;97159.88;103215;1318;22573;-85
2021/12/10 09:04:39;;;;;;;99.30;41.50;;;;;;;0.61;84.40;97156.38;103122;1322;137764;-84
2021/12/10 09:07:11;;;;;;;109.90;40.40;;;;;;;0.72;84.02;97158.70;103092;1319;24462;-84
2021/12/10 09:09:41;;;;;;;117.90;45.40;;;;;;;0.83;83.47;97158.48;103188;1323;22919;-85
2021/12/10 09:12:14;;;;;;;109.80;43.20;;;;;;;0.94;83.59;97161.02;103299;1316;138572;-84
2021/12/10 09:14:47;;;;;;;107.10;40.80;;;;;;;1.10;83.74;97162.08;103173;1318;22603;-84
2021/12/10 09:17:21;;;;;;;95.50;40.00;;;;;;;1.28;83.34;97162.15;103398;1318;137701;-85
2021/12/10 09:19:53;;;;;;;102.90;41.60;;;;;;;1.51;83.27;97159.67;103147;1319;26844;-85
2021/12/10 09:22:23;;;;;;;113.00;42.60;;;;;;;1.73;83.15;97162.05;103173;1319;22666;-85
2021/12/10 09:24:54;;;;;;;105.70;41.80;;;;;;;1.89;82.37;97160.48;103118;1316;137647;-85
2021/12/10 09:27:25;;;;;;;100.80;41.50;;;;;;;1.88;81.17;97158.27;103306;1323;22581;-85
2021/12/10 09:30:13;;;;;;;108.00;42.00;;;;;;;1.81;80.86;97152.17;103130;1323;138006;-85
2021/12/10 09:32:41;;;;;;;97.00;40.50;;;;;;;1.79;81.36;97148.52;103195;1317;24316;-85
2021/12/10 09:35:11;;;;;;;110.10;45.10;;;;;;;1.82;81.25;97144.70;102907;1325;137968;-85
2021/12/10 09:37:40;;;;;;;105.50;44.90;;;;;;;1.90;81.44;97141.27;103167;1319;22652;-81
2021/12/10 09:40:13;;;;;;;110.90;45.00;;;;;;;2.00;81.27;97134.73;103264;1319;24287;-86
2021/12/10 09:42:42;;;;;;;98.00;43.10;;;;;;;2.09;81.27;97138.18;103087;1319;138022;-86
2021/12/10 09:45:17;;;;;;;116.90;44.90;;;;;;;2.17;81.03;97137.19;103297;1316;22745;-83
2021/12/10 09:47:44;;;;;;;113.60;44.00;;;;;;;2.21;80.61;97134.70;103147;1318;138004;-84
2021/12/10 09:50:16;;;;;;;103.20;46.40;;;;;;;2.22;80.18;97131.09;103321;1319;22587;-85
2021/12/10 09:52:45;;;;;;;107.30;45.50;;;;;;;2.27;80.21;97125.56;102984;1325;137932;-86
2021/12/10 09:55:15;;;;;;;102.40;42.30;;;;;;;2.37;80.33;97120.96;103308;1321;22580;-85
2021/12/10 09:57:45;;;;;;;100.60;42.20;;;;;;;2.44;80.09;97117.30;103145;1318;24442;-81
2021/12/10 10:00:30;;;;;;;106.20;43.30;;;;;;;2.46;79.58;97122.04;103068;1322;138470;-84
2021/12/10 10:02:58;;;;;;;93.30;39.80;;;;;;;2.49;79.22;97115.40;103172;1319;24308;-84
2021/12/10 10:05:30;;;;;;;98.70;43.60;;;;;;;2.50;79.10;97116.46;103263;1316;138426;-86
2021/12/10 10:08:02;;;;;;;96.10;41.00;;;;;;;2.57;79.27;97115.34;103120;1318;25502;-85
2021/12/10 10:10:31;;;;;;;101.80;43.50;;;;;;;2.65;79.28;97113.95;103239;1323;25297;-87
2021/12/10 10:13:13;;;;;;;92.70;42.10;;;;;;;2.72;79.23;97105.95;103088;1323;137741;-83
2021/12/10 10:15:43;;;;;;;98.90;41.60;;;;;;;2.80;79.14;97100.96;103045;1321;25325;-83
2021/12/10 10:18:11;;;;;;;101.00;42.70;;;;;;;2.91;78.80;97102.91;103020;1320;137566;-85
2021/12/10 10:20:43;;;;;;;109.50;43.00;;;;;;;2.98;78.49;97110.13;103241;1320;22652;-85
2021/12/10 10:23:10;;;;;;;111.30;45.70;;;;;;;3.02;78.15;97117.98;103042;1324;137906;-85
2021/12/10 10:25:42;;;;;;;104.10;44.40;;;;;;;3.02;77.68;97117.19;103225;1319;22608;-85
2021/12/10 10:28:11;;;;;;;99.30;44.30;;;;;;;3.00;77.56;97113.25;103082;1318;24393;-86
2021/12/10 10:30:46;;;;;;;101.80;44.80;;;;;;;3.03;77.63;97114.41;103232;1316;137660;-86
2021/12/10 10:33:13;;;;;;;102.90;44.60;;;;;;;3.07;77.78;97107.52;103529;1323;22605;-86
2021/12/10 10:35:50;;;;;;;100.90;40.40;;;;;;;3.13;77.71;97101.85;103276;1321;138219;-86
2021/12/10 10:38:18;;;;;;;93.20;40.50;;;;;;;3.20;77.71;97096.10;103165;1323;22632;-86
2021/12/10 10:40:54;;;;;;;110.80;42.80;;;;;;;3.29;77.77;97087.67;103045;1318;22723;-86
2021/12/10 10:43:24;;;;;;;94.20;41.50;;;;;;;3.40;77.67;97094.81;103022;1324;137843;-86
2021/12/10 10:45:52;;;;;;;96.40;41.20;;;;;;;3.47;77.47;97097.50;103029;1321;22707;-86
2021/12/10 10:48:21;;;;;;;92.90;40.90;;;;;;;3.51;77.28;97098.90;103030;1320;137524;-87
2021/12/10 10:50:59;;;;;;;88.00;38.20;;;;;;;3.50;76.82;97101.08;103237;1315;22596;-86
2021/12/10 10:53:35;;;;;;;89.90;38.70;;;;;;;3.45;76.48;97111.08;102954;1319;138394;-87
2021/12/10 10:56:25;;;;;;;96.30;39.00;;;;;;;3.38;76.32;97112.52;102940;1323;23417;-86
2021/12/10 10:58:57;;;;;;;99.60;42.80;;;;;;;3.35;76.65;97111.55;103144;1316;22881;-86
2021/12/10 11:01:41;;;;;;;98.80;41.80;;;;;;;3.38;76.86;97111.17;103121;1316;138109;-86
2021/12/10 11:04:18;;;;;;;89.40;40.20;;;;;;;3.43;76.77;97112.59;103174;1323;24217;-85
2021/12/10 11:06:49;;;;;;;96.00;41.50;;;;;;;3.49;77.06;97109.28;103091;1322;137500;-86
2021/12/10 11:09:30;;;;;;;99.70;43.30;;;;;;;3.56;77.03;97106.13;103334;1319;25269;-86
2021/12/10 11:12:01;;;;;;;101.20;43.10;;;;;;;3.65;76.93;97105.61;103072;1319;137416;-85
2021/12/10 11:14:37;;;;;;;96.60;42.10;;;;;;;3.70;76.51;97103.73;103137;1323;23374;-85
2021/12/10 11:17:16;;;;;;;98.00;42.20;;;;;;;3.72;76.42;97105.45;103241;1319;137617;-85
2021/12/10 11:20:01;;;;;;;96.60;42.60;;;;;;;3.77;76.87;97106.07;103394;1319;22590;-85
2021/12/10 11:22:30;;;;;;;103.30;41.80;;;;;;;3.84;76.61;97109.22;103229;1319;22886;-85
2021/12/10 11:25:10;;;;;;;97.00;41.50;;;;;;;3.84;76.20;97110.91;103846;1319;137671;-85
2021/12/10 11:27:42;;;;;;;95.60;41.90;;;;;;;3.85;76.13;97110.45;103549;1322;30159;-84
2021/12/10 11:30:20;;;;;;;96.90;42.40;;;;;;;3.88;76.32;97109.91;103126;1319;137881;-84
2021/12/10 11:32:55;;;;;;;91.50;40.90;;;;;;;3.94;76.36;97109.68;103156;1325;24321;-84
2021/12/10 11:35:45;;;;;;;84.10;36.80;;;;;;;4.02;76.05;97109.09;103034;1318;138275;-84
2021/12/10 11:38:18;;;;;;;84.40;39.30;;;;;;;4.07;75.55;97109.23;103274;1319;25374;-84